createdAt,value
2022-10-09T00:01:15.870Z,10.66
2022-10-09T00:03:45.110Z,10.65
2022-10-09T00:06:24.669Z,10.68
2022-10-09T00:08:51.919Z,10.57
2022-10-09T00:11:25.075Z,10.46
2022-10-09T00:13:53.675Z,10.39
2022-10-09T00:16:22.568Z,10.42
2022-10-09T00:18:50.670Z,10.42
2022-10-09T00:21:32.522Z,10.42
2022-10-09T00:24:01.718Z,10.29
2022-10-09T00:26:28.800Z,10.10
2022-10-09T00:28:56.049Z,10.17
2022-10-09T00:31:23.083Z,10.22
2022-10-09T00:33:49.883Z,10.17
2022-10-09T00:36:20.168Z,10.13
2022-10-09T00:38:47.312Z,10.08
2022-10-09T00:41:20.743Z,9.99
2022-10-09T00:43:50.761Z,9.95
2022-10-09T00:46:28.855Z,10.00
2022-10-09T00:49:07.804Z,10.08
2022-10-09T00:51:35.220Z,10.12
2022-10-09T00:54:05.023Z,10.05
2022-10-09T00:56:32.076Z,9.89
2022-10-09T00:58:59.074Z,10.00
2022-10-09T01:01:26.442Z,10.02
2022-10-09T01:03:53.251Z,10.04
2022-10-09T01:06:54.367Z,9.94
2022-10-09T01:09:31.108Z,9.93
2022-10-09T01:12:15.499Z,9.97
2022-10-09T01:14:55.343Z,9.94
2022-10-09T01:17:47.956Z,9.87
2022-10-09T01:20:57.098Z,9.86
2022-10-09T01:23:33.036Z,9.90
2022-10-09T01:26:20.725Z,9.95
2022-10-09T01:28:52.372Z,9.79
2022-10-09T01:31:21.451Z,9.82
2022-10-09T01:33:48.769Z,9.88
2022-10-09T01:36:17.701Z,9.89
2022-10-09T01:38:46.835Z,9.82
2022-10-09T01:41:13.562Z,9.88
2022-10-09T01:43:41.236Z,9.86
2022-10-09T01:46:25.386Z,9.85
2022-10-09T01:49:29.788Z,9.78
2022-10-09T01:52:11.549Z,9.80
2022-10-09T01:55:07.350Z,9.78
2022-10-09T01:58:03.247Z,9.68
2022-10-09T02:00:41.268Z,9.69
2022-10-09T02:03:12.303Z,9.55
2022-10-09T02:05:42.126Z,9.51
2022-10-09T02:08:13.857Z,9.52
2022-10-09T02:10:43.482Z,9.47
2022-10-09T02:13:10.427Z,9.48
2022-10-09T02:15:55.678Z,9.33
2022-10-09T02:18:39.616Z,9.40
2022-10-09T02:21:16.836Z,9.33
2022-10-09T02:23:46.239Z,9.48
2022-10-09T02:26:14.012Z,9.39
2022-10-09T02:28:45.730Z,9.30
2022-10-09T02:31:18.679Z,9.33
2022-10-09T02:33:45.487Z,9.43
2022-10-09T02:36:12.203Z,9.49
2022-10-09T02:38:38.898Z,9.43
2022-10-09T02:41:05.676Z,9.39
2022-10-09T02:43:32.313Z,9.46
2022-10-09T02:45:59.063Z,9.42
2022-10-09T02:48:25.770Z,9.50
2022-10-09T02:50:52.520Z,9.47
2022-10-09T02:53:19.223Z,9.41
2022-10-09T02:55:46.354Z,9.42
2022-10-09T02:58:13.126Z,9.33
2022-10-09T03:00:39.842Z,9.30
2022-10-09T03:03:06.730Z,9.19
2022-10-09T03:05:33.592Z,9.18
2022-10-09T03:08:00.325Z,9.13
2022-10-09T03:10:26.999Z,9.16
2022-10-09T03:12:53.706Z,9.17
2022-10-09T03:15:20.416Z,9.18
2022-10-09T03:17:47.136Z,9.21
2022-10-09T03:20:13.905Z,9.16
2022-10-09T03:22:40.589Z,9.01
2022-10-09T03:25:08.010Z,8.96
2022-10-09T03:27:35.795Z,8.87
2022-10-09T03:30:02.803Z,8.85
2022-10-09T03:32:29.571Z,8.77
2022-10-09T03:34:56.269Z,8.76
2022-10-09T03:37:22.924Z,8.89
2022-10-09T03:39:49.688Z,8.92
2022-10-09T03:42:16.436Z,8.80
2022-10-09T03:44:43.169Z,8.82
2022-10-09T03:47:09.926Z,8.73
2022-10-09T03:49:36.606Z,8.87
2022-10-09T03:52:03.398Z,8.74
2022-10-09T03:54:30.098Z,8.67
2022-10-09T03:56:56.824Z,8.67
2022-10-09T03:59:23.597Z,8.77
2022-10-09T04:01:50.294Z,8.77
2022-10-09T04:04:17.041Z,8.68
2022-10-09T04:06:44.302Z,8.73
2022-10-09T04:09:11.102Z,8.62
2022-10-09T04:11:37.991Z,8.56
2022-10-09T04:14:04.788Z,8.60
2022-10-09T04:16:31.594Z,8.54
2022-10-09T04:18:59.152Z,8.57
2022-10-09T04:21:25.963Z,8.38
2022-10-09T04:23:52.767Z,8.40
2022-10-09T04:26:19.466Z,8.39
2022-10-09T04:28:46.265Z,8.35
2022-10-09T04:31:13.170Z,8.49
2022-10-09T04:33:39.921Z,8.41
2022-10-09T04:36:07.340Z,8.27
2022-10-09T04:38:34.223Z,8.32
2022-10-09T04:41:06.645Z,8.30
2022-10-09T04:43:34.865Z,8.16
2022-10-09T04:46:10.996Z,8.15
2022-10-09T04:48:39.716Z,8.24
2022-10-09T04:51:07.725Z,8.25
2022-10-09T04:53:36.052Z,8.22
2022-10-09T04:56:09.901Z,8.16
2022-10-09T04:58:37.120Z,8.15
2022-10-09T05:01:09.050Z,7.98
2022-10-09T05:03:36.635Z,7.90
2022-10-09T05:06:05.641Z,8.00
2022-10-09T05:08:32.857Z,8.08
2022-10-09T05:11:04.803Z,8.13
2022-10-09T05:13:34.902Z,8.11
2022-10-09T05:16:02.935Z,8.06
2022-10-09T05:18:30.306Z,8.11
2022-10-09T05:20:57.357Z,8.15
2022-10-09T05:23:24.218Z,8.12
2022-10-09T05:25:58.509Z,7.99
2022-10-09T05:28:26.428Z,7.90
2022-10-09T05:30:53.711Z,7.98
2022-10-09T05:33:20.838Z,7.98
2022-10-09T05:35:58.917Z,7.99
2022-10-09T05:38:26.753Z,7.96
2022-10-09T05:41:01.809Z,7.88
2022-10-09T05:43:31.852Z,7.81
2022-10-09T05:46:23.408Z,7.72
2022-10-09T05:48:55.363Z,7.69
2022-10-09T05:51:24.722Z,7.62
2022-10-09T05:53:51.658Z,7.79
2022-10-09T05:56:23.826Z,7.68
2022-10-09T05:58:59.805Z,7.61
2022-10-09T06:01:29.763Z,7.62
2022-10-09T06:03:58.555Z,7.66
2022-10-09T06:06:28.084Z,7.67
2022-10-09T06:08:55.026Z,7.70
2022-10-09T06:11:28.722Z,7.69
2022-10-09T06:13:56.392Z,7.69
2022-10-09T06:16:25.573Z,7.71
2022-10-09T06:18:54.329Z,7.81
2022-10-09T06:21:21.821Z,7.86
2022-10-09T06:23:53.100Z,7.96
2022-10-09T06:26:21.360Z,7.88
2022-10-09T06:28:48.954Z,7.76
2022-10-09T06:31:21.414Z,7.88
2022-10-09T06:33:49.846Z,7.91
2022-10-09T06:36:23.312Z,7.98
2022-10-09T06:38:50.637Z,8.10
2022-10-09T06:41:23.258Z,8.09
2022-10-09T06:44:02.134Z,8.05
2022-10-09T06:46:34.399Z,8.07
2022-10-09T06:49:01.730Z,8.18
2022-10-09T06:51:29.581Z,8.16
2022-10-09T06:53:59.585Z,8.20
2022-10-09T06:56:29.985Z,8.31
2022-10-09T06:58:59.608Z,8.41
2022-10-09T07:01:30.307Z,8.48
2022-10-09T07:03:59.666Z,8.46
2022-10-09T07:06:31.475Z,8.49
2022-10-09T07:09:01.094Z,8.52
2022-10-09T07:11:36.035Z,8.52
2022-10-09T07:14:05.454Z,8.57
2022-10-09T07:16:39.142Z,8.71
2022-10-09T07:19:08.120Z,8.78
2022-10-09T07:21:35.541Z,8.81
2022-10-09T07:24:03.873Z,8.76
2022-10-09T07:26:32.762Z,8.83
2022-10-09T07:29:00.000Z,9.02
2022-10-09T07:31:26.862Z,9.11
2022-10-09T07:33:56.514Z,9.24
2022-10-09T07:36:23.922Z,9.30
2022-10-09T07:38:59.886Z,9.38
2022-10-09T07:41:28.812Z,9.44
2022-10-09T07:43:56.112Z,9.62
2022-10-09T07:46:24.499Z,9.77
2022-10-09T07:48:51.726Z,9.85
2022-10-09T07:51:24.449Z,10.06
2022-10-09T07:53:52.378Z,10.27
2022-10-09T07:56:21.917Z,10.37
2022-10-09T07:58:57.469Z,10.60
2022-10-09T08:01:28.178Z,10.77
2022-10-09T08:03:55.263Z,11.05
2022-10-09T08:06:22.162Z,11.33
2022-10-09T08:08:53.608Z,11.55
2022-10-09T08:11:22.359Z,11.75
2022-10-09T08:13:50.007Z,11.99
2022-10-09T08:16:21.367Z,12.18
2022-10-09T08:18:48.495Z,12.51
2022-10-09T08:21:19.105Z,12.73
2022-10-09T08:23:46.489Z,13.05
2022-10-09T08:26:21.226Z,13.40
2022-10-09T08:28:57.460Z,13.50
2022-10-09T08:31:25.298Z,13.67
2022-10-09T08:33:53.860Z,13.85
2022-10-09T08:36:21.840Z,14.01
2022-10-09T08:38:49.567Z,14.24
2022-10-09T08:41:49.089Z,14.35
2022-10-09T08:44:22.125Z,14.56
2022-10-09T08:47:06.533Z,14.97
2022-10-09T08:49:55.194Z,15.23
2022-10-09T08:52:35.859Z,15.45
2022-10-09T08:55:28.647Z,15.65
2022-10-09T08:57:59.859Z,15.81
2022-10-09T09:00:40.103Z,15.69
2022-10-09T09:03:31.253Z,15.98
2022-10-09T09:06:19.142Z,16.19
2022-10-09T09:09:04.150Z,16.35
2022-10-09T09:11:55.394Z,16.56
2022-10-09T09:14:47.223Z,16.57
2022-10-09T09:17:41.371Z,16.73
2022-10-09T09:20:26.749Z,16.74
2022-10-09T09:22:53.626Z,17.03
2022-10-09T09:25:23.710Z,17.10
2022-10-09T09:27:53.933Z,17.13
2022-10-09T09:30:25.354Z,17.30
2022-10-09T09:33:22.175Z,17.59
2022-10-09T09:35:52.023Z,17.91
2022-10-09T09:38:18.794Z,17.95
2022-10-09T09:40:47.335Z,17.92
2022-10-09T09:43:26.039Z,18.02
2022-10-09T09:46:00.528Z,18.14
2022-10-09T09:48:32.531Z,18.08
2022-10-09T09:51:23.455Z,18.23
2022-10-09T09:54:16.345Z,18.35
2022-10-09T09:59:38.325Z,18.75
2022-10-09T10:02:21.758Z,18.79
2022-10-09T10:05:13.458Z,18.86
2022-10-09T10:07:40.651Z,19.26
2022-10-09T10:10:15.536Z,19.32
2022-10-09T10:12:44.868Z,19.21
2022-10-09T10:15:32.113Z,19.31
2022-10-09T10:18:05.017Z,19.29
2022-10-09T10:20:41.879Z,19.40
2022-10-09T10:23:31.112Z,19.74
2022-10-09T10:26:01.246Z,19.78
2022-10-09T10:28:35.547Z,19.78
2022-10-09T10:31:07.969Z,19.84
2022-10-09T10:33:38.113Z,19.98
2022-10-09T10:36:09.638Z,19.98
2022-10-09T10:38:44.660Z,19.96
2022-10-09T10:41:20.016Z,20.07
2022-10-09T10:44:07.888Z,20.57
2022-10-09T10:46:49.057Z,20.84
2022-10-09T10:49:20.869Z,20.64
2022-10-09T10:52:02.725Z,20.40
2022-10-09T10:54:51.891Z,20.77
2022-10-09T10:57:26.053Z,21.19
2022-10-09T11:00:10.969Z,21.35
2022-10-09T11:03:03.136Z,21.66
2022-10-09T11:05:38.591Z,22.19
2022-10-09T11:08:10.273Z,22.49
2022-10-09T11:10:43.598Z,22.56
2022-10-09T11:13:33.748Z,22.58
2022-10-09T11:16:15.044Z,22.71
2022-10-09T11:18:54.034Z,23.19
2022-10-09T11:21:43.590Z,23.58
2022-10-09T11:24:40.627Z,23.65
2022-10-09T11:27:14.736Z,24.03
2022-10-09T11:29:48.700Z,24.45
2022-10-09T11:32:37.587Z,24.49
2022-10-09T11:35:20.334Z,24.75
2022-10-09T11:37:57.675Z,24.79
2022-10-09T11:40:30.208Z,24.93
2022-10-09T11:43:02.727Z,25.25
2022-10-09T11:45:32.000Z,25.38
2022-10-09T11:48:06.862Z,25.36
2022-10-09T11:50:43.094Z,25.63
2022-10-09T11:53:19.795Z,25.29
2022-10-09T11:55:48.245Z,25.45
2022-10-09T11:58:26.118Z,25.45
2022-10-09T12:00:58.504Z,25.80
2022-10-09T12:04:02.514Z,25.82
2022-10-09T12:06:30.493Z,26.09
2022-10-09T12:09:22.483Z,26.39
2022-10-09T12:12:08.593Z,26.59
2022-10-09T12:14:38.811Z,26.22
2022-10-09T12:17:26.912Z,26.51
2022-10-09T12:20:06.096Z,26.49
2022-10-09T12:22:56.376Z,26.79
2022-10-09T12:29:04.969Z,26.91
2022-10-09T12:31:41.901Z,26.89
2022-10-09T12:34:20.975Z,26.97
2022-10-09T12:36:47.783Z,26.97
2022-10-09T12:39:23.480Z,26.96
2022-10-09T12:41:58.328Z,27.15
2022-10-09T12:44:41.361Z,27.33
2022-10-09T12:47:17.460Z,26.96
2022-10-09T12:49:59.652Z,27.12
2022-10-09T12:52:31.179Z,27.32
2022-10-09T12:55:23.250Z,27.36
2022-10-09T12:57:51.347Z,27.29
2022-10-09T13:00:18.765Z,27.03
2022-10-09T13:02:46.253Z,26.82
2022-10-09T13:05:13.327Z,26.94
2022-10-09T13:07:51.813Z,27.12
2022-10-09T13:10:24.663Z,26.86
2022-10-09T13:12:55.567Z,26.99
2022-10-09T13:15:35.689Z,27.02
2022-10-09T13:18:23.689Z,26.49
2022-10-09T13:21:24.864Z,26.39
2022-10-09T13:23:51.727Z,26.40
2022-10-09T13:26:30.415Z,26.51
2022-10-09T13:29:01.387Z,26.55
2022-10-09T13:31:28.690Z,26.34
2022-10-09T13:34:07.492Z,26.01
2022-10-09T13:36:34.457Z,25.84
2022-10-09T13:39:01.376Z,25.69
2022-10-09T13:41:28.452Z,25.78
2022-10-09T13:43:55.415Z,25.43
2022-10-09T13:46:22.282Z,25.60
2022-10-09T13:48:49.108Z,25.67
2022-10-09T13:51:15.929Z,25.35
2022-10-09T13:53:42.666Z,25.13
2022-10-09T13:56:09.620Z,25.04
2022-10-09T13:58:36.902Z,24.92
2022-10-09T14:01:04.211Z,24.99
2022-10-09T14:03:30.998Z,24.86
2022-10-09T14:06:03.143Z,24.39
2022-10-09T14:08:34.830Z,23.81
2022-10-09T14:11:03.683Z,23.24
2022-10-09T14:13:30.756Z,22.58
2022-10-09T14:15:57.526Z,21.81
2022-10-09T14:18:24.368Z,21.28
2022-10-09T14:20:51.190Z,21.12
2022-10-09T14:23:17.886Z,21.07
2022-10-09T14:25:44.592Z,20.98
2022-10-09T14:28:11.531Z,20.86
2022-10-09T14:30:43.131Z,20.78
2022-10-09T14:33:09.909Z,20.69
2022-10-09T14:35:36.734Z,20.42
2022-10-09T14:38:03.443Z,20.25
2022-10-09T14:40:30.129Z,20.15
2022-10-09T14:42:56.999Z,20.01
2022-10-09T14:45:23.712Z,20.04
2022-10-09T14:47:50.388Z,19.99
2022-10-09T14:50:17.203Z,19.92
2022-10-09T14:52:44.651Z,19.84
2022-10-09T14:55:11.455Z,19.79
2022-10-09T14:57:38.251Z,19.72
2022-10-09T15:00:05.974Z,19.66
2022-10-09T15:02:32.741Z,19.59
2022-10-09T15:04:59.588Z,19.53
2022-10-09T15:07:28.076Z,19.43
2022-10-09T15:09:55.077Z,19.33
2022-10-09T15:12:21.832Z,19.25
2022-10-09T15:14:49.547Z,19.22
2022-10-09T15:17:16.462Z,19.16
2022-10-09T15:19:43.474Z,19.17
2022-10-09T15:22:10.589Z,19.05
2022-10-09T15:24:37.701Z,18.96
2022-10-09T15:27:05.254Z,18.97
2022-10-09T15:29:32.313Z,18.96
2022-10-09T15:31:59.139Z,18.84
2022-10-09T15:34:27.289Z,18.71
2022-10-09T15:36:54.271Z,18.68
2022-10-09T15:39:23.614Z,18.63
2022-10-09T15:41:50.406Z,18.58
2022-10-09T15:44:20.374Z,18.56
2022-10-09T15:46:48.625Z,18.54
2022-10-09T15:49:16.408Z,18.45
2022-10-09T15:51:43.845Z,18.40
2022-10-09T15:54:11.989Z,18.30
2022-10-09T15:56:40.158Z,18.21
2022-10-09T15:59:10.654Z,18.21
2022-10-09T16:01:37.594Z,18.16
2022-10-09T16:04:09.601Z,18.09
2022-10-09T16:06:36.471Z,18.09
2022-10-09T16:09:05.099Z,18.01
2022-10-09T16:11:32.180Z,17.90
2022-10-09T16:13:59.288Z,17.85
2022-10-09T16:16:27.614Z,17.85
2022-10-09T16:18:56.002Z,17.79
2022-10-09T16:21:26.593Z,17.73
2022-10-09T16:23:58.361Z,17.71
2022-10-09T16:26:26.923Z,17.59
2022-10-09T16:28:53.831Z,17.48
2022-10-09T16:31:22.914Z,17.46
2022-10-09T16:33:49.842Z,17.39
2022-10-09T16:36:16.714Z,17.32
2022-10-09T16:38:43.668Z,17.24
2022-10-09T16:41:13.502Z,17.19
2022-10-09T16:43:40.929Z,17.11
2022-10-09T16:46:09.673Z,17.01
2022-10-09T16:48:36.412Z,16.97
2022-10-09T16:51:07.736Z,16.89
2022-10-09T16:53:34.705Z,16.78
2022-10-09T16:56:10.180Z,16.64
2022-10-09T16:58:37.546Z,16.48
2022-10-09T17:01:09.470Z,16.39
2022-10-09T17:03:37.338Z,16.24
2022-10-09T17:06:15.318Z,16.06
2022-10-09T17:08:42.862Z,15.89
2022-10-09T17:11:13.014Z,15.77
2022-10-09T17:13:41.147Z,15.65
2022-10-09T17:16:13.202Z,15.64
2022-10-09T17:18:42.550Z,15.56
2022-10-09T17:21:16.074Z,15.42
2022-10-09T17:23:47.320Z,15.18
2022-10-09T17:26:20.316Z,15.06
2022-10-09T17:28:48.449Z,15.03
2022-10-09T17:31:18.452Z,15.03
2022-10-09T17:33:48.114Z,15.10
2022-10-09T17:36:23.311Z,15.07
2022-10-09T17:38:53.875Z,14.94
2022-10-09T17:41:23.633Z,14.90
2022-10-09T17:43:52.236Z,14.77
2022-10-09T17:46:19.918Z,14.75
2022-10-09T17:48:52.626Z,14.75
2022-10-09T17:51:25.543Z,14.72
2022-10-09T17:53:53.577Z,14.57
2022-10-09T17:56:20.375Z,14.59
2022-10-09T17:58:50.135Z,14.59
2022-10-09T18:01:17.553Z,14.52
2022-10-09T18:03:45.060Z,14.58
2022-10-09T18:06:15.246Z,14.47
2022-10-09T18:08:42.246Z,14.40
2022-10-09T18:11:12.619Z,14.35
2022-10-09T18:13:39.525Z,14.18
2022-10-09T18:16:18.528Z,14.21
2022-10-09T18:18:46.113Z,14.12
2022-10-09T18:21:16.842Z,14.02
2022-10-09T18:23:47.612Z,13.95
2022-10-09T18:26:17.869Z,13.98
2022-10-09T18:28:48.247Z,14.01
2022-10-09T18:31:19.290Z,13.98
2022-10-09T18:33:46.386Z,13.91
2022-10-09T18:36:36.027Z,13.81
2022-10-09T18:39:13.443Z,13.62
2022-10-09T18:41:41.804Z,13.52
2022-10-09T18:47:11.836Z,13.72
2022-10-09T18:49:52.432Z,13.72
2022-10-09T18:52:19.661Z,13.67
2022-10-09T18:54:50.586Z,13.49
2022-10-09T18:57:17.359Z,13.44
2022-10-09T18:59:44.401Z,13.49
2022-10-09T19:02:11.514Z,13.47
2022-10-09T19:04:38.702Z,13.42
2022-10-09T19:07:05.405Z,13.39
2022-10-09T19:09:32.219Z,13.27
2022-10-09T19:11:59.011Z,13.23
2022-10-09T19:14:29.062Z,13.25
2022-10-09T19:16:55.952Z,13.27
2022-10-09T19:19:23.136Z,13.18
2022-10-09T19:21:49.973Z,13.20
2022-10-09T19:24:17.485Z,13.24
2022-10-09T19:26:44.284Z,13.28
2022-10-09T19:29:11.512Z,13.23
2022-10-09T19:31:38.501Z,13.21
2022-10-09T19:34:05.724Z,13.09
2022-10-09T19:36:34.340Z,12.94
2022-10-09T19:39:03.111Z,12.79
2022-10-09T19:41:38.864Z,12.84
2022-10-09T19:44:06.641Z,12.92
2022-10-09T19:46:37.016Z,12.90
2022-10-09T19:49:07.184Z,12.89
2022-10-09T19:51:35.744Z,12.94
2022-10-09T19:54:08.014Z,12.91
2022-10-09T19:56:36.809Z,12.90
2022-10-09T19:59:07.146Z,12.97
2022-10-09T20:01:35.936Z,12.95
2022-10-09T20:04:07.501Z,12.77
2022-10-09T20:06:39.737Z,12.65
2022-10-09T20:09:09.000Z,12.69
2022-10-09T20:11:38.474Z,12.74
2022-10-09T20:14:05.769Z,12.72
2022-10-09T20:16:33.552Z,12.71
2022-10-09T20:19:01.189Z,12.82
2022-10-09T20:21:30.689Z,12.79
2022-10-09T20:23:58.976Z,12.80
2022-10-09T20:26:26.165Z,12.95
2022-10-09T20:28:54.022Z,12.95
2022-10-09T20:31:23.826Z,12.85
2022-10-09T20:33:52.116Z,12.83
2022-10-09T20:36:24.236Z,12.77
2022-10-09T20:38:51.052Z,12.78
2022-10-09T20:41:18.050Z,12.82
2022-10-09T20:43:45.390Z,12.81
2022-10-09T20:46:14.587Z,12.77
2022-10-09T20:48:42.666Z,12.86
2022-10-09T20:51:10.176Z,12.76
2022-10-09T20:53:37.463Z,12.68
2022-10-09T20:56:09.378Z,12.63
2022-10-09T20:58:36.321Z,12.59
2022-10-09T21:01:10.772Z,12.66
2022-10-09T21:03:38.575Z,12.56
2022-10-09T21:06:07.842Z,12.50
2022-10-09T21:08:35.645Z,12.46
2022-10-09T21:11:05.920Z,12.36
2022-10-09T21:13:33.030Z,12.41
2022-10-09T21:15:59.907Z,12.43
2022-10-09T21:18:26.614Z,12.47
2022-10-09T21:20:53.289Z,12.46
2022-10-09T21:23:20.162Z,12.47
2022-10-09T21:25:51.814Z,12.51
2022-10-09T21:28:20.441Z,12.54
2022-10-09T21:30:47.639Z,12.55
2022-10-09T21:33:15.043Z,12.61
2022-10-09T21:35:44.284Z,12.49
2022-10-09T21:38:17.588Z,12.35
2022-10-09T21:40:44.972Z,12.32
2022-10-09T21:43:12.224Z,12.28
2022-10-09T21:45:39.844Z,12.28
2022-10-09T21:48:07.519Z,12.34
2022-10-09T21:50:36.290Z,12.27
2022-10-09T21:53:04.173Z,12.32
2022-10-09T21:55:30.886Z,12.38
2022-10-09T21:57:57.840Z,12.35
2022-10-09T22:00:24.965Z,12.32
2022-10-09T22:02:52.130Z,12.27
2022-10-09T22:05:21.492Z,12.29
2022-10-09T22:07:48.693Z,12.21
2022-10-09T22:10:15.510Z,12.19
2022-10-09T22:12:42.291Z,12.13
2022-10-09T22:15:09.563Z,12.22
2022-10-09T22:17:36.495Z,12.17
2022-10-09T22:20:04.305Z,12.03
2022-10-09T22:22:31.047Z,11.91
2022-10-09T22:24:59.481Z,11.94
2022-10-09T22:27:26.431Z,11.96
2022-10-09T22:29:53.288Z,11.83
2022-10-09T22:32:20.068Z,11.78
2022-10-09T22:34:46.731Z,11.67
2022-10-09T22:37:13.419Z,11.72
2022-10-09T22:39:40.106Z,11.81
2022-10-09T22:42:06.836Z,11.81
2022-10-09T22:44:33.528Z,11.79
2022-10-09T22:47:00.285Z,11.81
2022-10-09T22:49:27.455Z,11.83
2022-10-09T22:51:54.241Z,11.59
2022-10-09T22:54:22.008Z,11.59
2022-10-09T22:56:48.844Z,11.50
2022-10-09T22:59:17.984Z,11.40
2022-10-09T23:01:54.679Z,11.32
2022-10-09T23:04:22.991Z,11.33
2022-10-09T23:06:52.072Z,11.45
2022-10-09T23:09:21.556Z,11.51
2022-10-09T23:11:48.749Z,11.46
2022-10-09T23:14:15.501Z,11.53
2022-10-09T23:16:42.755Z,11.46
2022-10-09T23:19:10.165Z,11.38
2022-10-09T23:21:41.238Z,11.23
2022-10-09T23:24:09.487Z,11.11
2022-10-09T23:26:37.787Z,11.12
2022-10-09T23:29:08.178Z,11.19
2022-10-09T23:31:36.155Z,11.20
2022-10-09T23:34:04.871Z,11.19
2022-10-09T23:36:32.127Z,11.12
2022-10-09T23:39:00.600Z,11.14
2022-10-09T23:41:28.844Z,11.17
2022-10-09T23:43:55.989Z,11.14
2022-10-09T23:46:25.267Z,11.10
2022-10-09T23:48:52.356Z,11.10
2022-10-09T23:51:20.652Z,11.19
2022-10-09T23:53:47.786Z,11.17
2022-10-09T23:56:18.210Z,11.18
2022-10-09T23:58:45.657Z,11.10
